Terminal Aerodrome Forecast
Issued by NWS

Home | Current Version | Previous Version | Text Only | Print | Product List | Glossary On
Versions: 1 2 3 4 5 6 7 8 9 10 11 12 13 14 15 16 17 18 19
305
FTUS43 KJKL 181307 AAA
TAFSME
TAF AMD
KSME 181307Z 1813/1912 32007KT P6SM OVC015
     FM181600 VRB03KT P6SM BKN025
     FM182000 VRB03KT P6SM SCT035=

USA.gov is the U.S. government's official web portal to all federal, state and local government web resources and services.